createdAt,value
2023-04-19T00:01:02.709Z,101202.88
2023-04-19T00:02:05.403Z,101200.13
2023-04-19T00:03:08.841Z,101201.19
2023-04-19T00:04:11.417Z,101193.75
2023-04-19T00:05:14.027Z,101194.59
2023-04-19T00:06:17.583Z,101185.47
2023-04-19T00:07:20.584Z,101193.75
2023-04-19T00:08:22.846Z,101191.84
2023-04-19T00:09:25.170Z,101193.75
2023-04-19T00:10:27.486Z,101194.59
2023-04-19T00:11:31.382Z,101188.25
2023-04-19T00:12:33.747Z,101193.75
2023-04-19T00:13:36.627Z,101192.91
2023-04-19T00:14:38.979Z,101191.00
2023-04-19T00:15:41.284Z,101193.75
2023-04-19T00:16:43.608Z,101184.66
2023-04-19T00:17:46.367Z,101191.00
2023-04-19T00:18:48.751Z,101186.34
2023-04-19T00:19:51.176Z,101188.47
2023-04-19T00:20:53.468Z,101178.31
2023-04-19T00:21:55.772Z,101181.91
2023-04-19T00:22:59.429Z,101181.91
2023-04-19T00:24:03.349Z,101181.91
2023-04-19T00:25:06.202Z,101187.19
2023-04-19T00:26:09.709Z,101186.34
2023-04-19T00:27:12.692Z,101179.16
2023-04-19T00:28:15.164Z,101179.34
2023-04-19T00:29:18.523Z,101176.59
2023-04-19T00:30:20.885Z,101184.00
2023-04-19T00:31:23.274Z,101179.34
2023-04-19T00:32:25.777Z,101182.09
2023-04-19T00:33:28.058Z,101181.25
2023-04-19T00:34:33.206Z,101175.72
2023-04-19T00:35:35.724Z,101183.16
2023-04-19T00:36:38.057Z,101179.59
2023-04-19T00:37:42.453Z,101178.47
2023-04-19T00:38:48.451Z,101180.66
2023-04-19T00:39:50.763Z,101181.47
2023-04-19T00:40:53.055Z,101186.97
2023-04-19T00:41:57.477Z,101180.66
2023-04-19T00:42:59.904Z,101178.72
2023-04-19T00:44:02.216Z,101177.06
2023-04-19T00:45:04.839Z,101174.31
2023-04-19T00:46:07.125Z,101167.94
2023-04-19T00:47:09.576Z,101173.44
2023-04-19T00:48:14.343Z,101175.38
2023-04-19T00:49:18.355Z,101175.59
2023-04-19T00:50:20.713Z,101171.16
2023-04-19T00:51:23.458Z,101170.09
2023-04-19T00:52:26.126Z,101171.16
2023-04-19T00:53:28.573Z,101171.75
2023-04-19T00:54:31.662Z,101174.50
2023-04-19T00:55:34.016Z,101164.78
2023-04-19T00:56:36.434Z,101162.91
2023-04-19T00:57:38.989Z,101166.72
2023-04-19T00:58:41.457Z,101172.22
2023-04-19T00:59:44.982Z,101159.28
2023-04-19T01:00:47.238Z,101166.72
2023-04-19T01:01:49.972Z,101158.69
2023-04-19T01:02:52.707Z,101155.94
2023-04-19T01:03:56.711Z,101161.44
2023-04-19T01:05:00.960Z,101161.44
2023-04-19T01:06:03.349Z,101162.50
2023-04-19T01:07:06.021Z,101155.31
2023-04-19T01:08:08.598Z,101163.34
2023-04-19T01:09:10.965Z,101154.25
2023-04-19T01:10:17.138Z,101158.06
2023-04-19T01:11:19.399Z,101163.56
2023-04-19T01:12:21.810Z,101156.38
2023-04-19T01:13:24.102Z,101159.13
2023-04-19T01:14:26.403Z,101161.03
2023-04-19T01:15:29.012Z,101156.59
2023-04-19T01:16:31.342Z,101156.59
2023-04-19T01:17:34.604Z,101154.91
2023-04-19T01:18:39.644Z,101157.66
2023-04-19T01:19:42.533Z,101170.59
2023-04-19T01:20:44.824Z,101156.84
2023-04-19T01:21:47.223Z,101154.31
2023-04-19T01:22:49.477Z,101156.19
2023-04-19T01:23:52.517Z,101155.38
2023-04-19T01:24:55.011Z,101154.53
2023-04-19T01:25:57.990Z,101159.19
2023-04-19T01:27:02.423Z,101159.44
2023-04-19T01:28:06.458Z,101155.84
2023-04-19T01:29:09.242Z,101164.94
2023-04-19T01:30:12.448Z,101166.00
2023-04-19T01:31:14.744Z,101162.41
2023-04-19T01:32:18.579Z,101157.97
2023-04-19T01:33:21.621Z,101159.03
2023-04-19T01:34:23.994Z,101156.28
2023-04-19T01:35:26.944Z,101159.25
2023-04-19T01:36:29.264Z,101160.31
2023-04-19T01:37:31.608Z,101155.91
2023-04-19T01:38:35.213Z,101152.28
2023-04-19T01:39:37.616Z,101152.28
2023-04-19T01:40:39.964Z,101145.09
2023-04-19T01:41:42.228Z,101141.53
2023-04-19T01:42:45.261Z,101151.69
2023-04-19T01:43:48.919Z,101146.41
2023-04-19T01:44:51.160Z,101148.09
2023-04-19T01:45:55.106Z,101148.09
2023-04-19T01:46:57.436Z,101141.97
2023-04-19T01:48:01.747Z,101150.25
2023-04-19T01:49:04.525Z,101148.56
2023-04-19T01:50:07.538Z,101145.81
2023-04-19T01:51:11.260Z,101139.66
2023-04-19T01:52:13.600Z,101142.41
2023-04-19T01:53:16.221Z,101145.16
2023-04-19T01:54:18.523Z,101143.47
2023-04-19T01:55:22.137Z,101145.41
2023-04-19T01:56:25.351Z,101145.41
2023-04-19T01:57:27.578Z,101138.22
2023-04-19T01:58:29.818Z,101148.38
2023-04-19T01:59:32.159Z,101143.13
2023-04-19T02:00:34.510Z,101139.50
2023-04-19T02:01:39.908Z,101143.56
2023-04-19T02:02:42.342Z,101142.25
2023-04-19T02:03:45.219Z,101139.72
2023-04-19T02:04:47.713Z,101139.09
2023-04-19T02:05:49.930Z,101133.59
2023-04-19T02:06:52.192Z,101133.81
2023-04-19T02:07:54.562Z,101133.00
2023-04-19T02:08:57.533Z,101134.94
2023-04-19T02:10:00.489Z,101134.94
2023-04-19T02:11:09.959Z,101132.38
2023-04-19T02:12:12.237Z,101125.81
2023-04-19T02:13:14.559Z,101132.38
2023-04-19T02:14:17.414Z,101125.22
2023-04-19T02:15:20.920Z,101137.88
2023-04-19T02:16:23.928Z,101136.22
2023-04-19T02:17:26.819Z,101130.09
2023-04-19T02:18:29.960Z,101131.16
2023-04-19T02:19:32.571Z,101133.91
2023-04-19T02:20:34.832Z,101136.66
2023-04-19T02:21:38.066Z,101132.22
2023-04-19T02:22:40.477Z,101127.78
2023-04-19T02:23:42.698Z,101129.91
2023-04-19T02:24:47.925Z,101131.84
2023-04-19T02:25:50.901Z,101130.16
2023-04-19T02:26:53.221Z,101134.78
2023-04-19T02:27:55.610Z,101131.22
2023-04-19T02:28:57.886Z,101131.44
2023-04-19T02:30:00.199Z,101129.75
2023-04-19T02:31:06.552Z,101131.66
2023-04-19T02:32:12.765Z,101134.63
2023-04-19T02:33:15.631Z,101131.88
2023-04-19T02:34:18.825Z,101127.47
2023-04-19T02:35:21.281Z,101126.84
2023-04-19T02:36:23.678Z,101132.34
2023-04-19T02:37:27.408Z,101130.88
2023-04-19T02:38:32.656Z,101127.28
2023-04-19T02:39:34.949Z,101133.84
2023-04-19T02:40:37.339Z,101131.34
2023-04-19T02:41:39.764Z,101131.56
2023-04-19T02:42:42.034Z,101130.94
2023-04-19T02:43:44.697Z,101127.34
2023-04-19T02:44:49.661Z,101126.72
2023-04-19T02:45:52.178Z,101129.47
2023-04-19T02:46:57.987Z,101123.34
2023-04-19T02:48:00.322Z,101125.25
2023-04-19T02:49:02.680Z,101125.50
2023-04-19T02:50:06.331Z,101119.13
2023-04-19T02:51:17.955Z,101114.72
2023-04-19T02:52:20.739Z,101119.34
2023-04-19T02:53:23.033Z,101107.75
2023-04-19T02:54:25.902Z,101116.19
2023-04-19T02:55:28.723Z,101105.19
2023-04-19T02:56:40.661Z,101114.53
2023-04-19T02:57:42.939Z,101113.69
2023-04-19T02:58:48.300Z,101110.34
2023-04-19T02:59:50.688Z,101115.84
2023-04-19T03:00:53.287Z,101113.91
2023-04-19T03:01:57.400Z,101114.97
2023-04-19T03:03:02.884Z,101108.63
2023-04-19T03:04:06.023Z,101111.63
2023-04-19T03:05:09.029Z,101109.09
2023-04-19T03:06:11.302Z,101108.25
2023-04-19T03:07:14.010Z,101105.50
2023-04-19T03:08:16.325Z,101102.97
2023-04-19T03:09:19.887Z,101108.69
2023-04-19T03:10:22.780Z,101114.19
2023-04-19T03:11:25.177Z,101110.59
2023-04-19T03:12:29.135Z,101105.09
2023-04-19T03:13:31.372Z,101103.44
2023-04-19T03:14:36.546Z,101102.78
2023-04-19T03:15:39.559Z,101101.97
2023-04-19T03:16:42.318Z,101095.59
2023-04-19T03:17:45.349Z,101093.09
2023-04-19T03:18:49.445Z,101105.13
2023-04-19T03:19:55.389Z,101101.56
2023-04-19T03:20:59.579Z,101088.03
2023-04-19T03:22:05.319Z,101096.28
2023-04-19T03:23:08.688Z,101093.97
2023-04-19T03:24:11.260Z,101088.47
2023-04-19T03:25:17.724Z,101093.97
2023-04-19T03:26:24.601Z,101096.72
2023-04-19T03:27:29.376Z,101091.44
2023-04-19T03:28:35.844Z,101088.91
2023-04-19T03:30:00.213Z,101084.47
2023-04-19T03:31:04.437Z,101082.78
2023-04-19T03:32:07.584Z,101080.28
2023-04-19T03:33:09.908Z,101073.94
2023-04-19T03:34:12.682Z,101077.75
2023-04-19T03:35:18.562Z,101080.28
2023-04-19T03:36:21.873Z,101071.41
2023-04-19T03:37:24.472Z,101071.41
2023-04-19T03:38:27.194Z,101063.38
2023-04-19T03:39:30.091Z,101072.72
2023-04-19T03:40:38.737Z,101072.72
2023-04-19T03:41:42.998Z,101076.50
2023-04-19T03:42:58.576Z,101076.75
2023-04-19T03:44:05.053Z,101068.69
2023-04-19T03:45:09.482Z,101069.78
2023-04-19T03:46:16.324Z,101067.03
2023-04-19T03:47:19.103Z,101067.03
2023-04-19T03:48:24.426Z,101068.31
2023-04-19T03:49:26.863Z,101072.97
2023-04-19T03:50:39.328Z,101070.44
2023-04-19T03:51:41.622Z,101065.75
2023-04-19T03:52:43.905Z,101069.59
2023-04-19T03:53:48.044Z,101078.91
2023-04-19T03:54:53.344Z,101077.22
2023-04-19T03:56:09.555Z,101074.69
2023-04-19T03:57:15.425Z,101073.88
2023-04-19T03:58:18.720Z,101073.88
2023-04-19T03:59:42.582Z,101074.06
2023-04-19T04:00:45.902Z,101070.47
2023-04-19T04:01:49.485Z,101069.84
2023-04-19T04:02:52.168Z,101061.84
2023-04-19T04:03:54.983Z,101073.06
2023-04-19T04:04:57.690Z,101070.31
2023-04-19T04:06:00.404Z,101068.38
2023-04-19T04:07:02.987Z,101069.66
2023-04-19T04:08:05.502Z,101068.84
2023-04-19T04:09:09.096Z,101067.78
2023-04-19T04:10:12.619Z,101071.81
2023-04-19T04:11:18.327Z,101066.31
2023-04-19T04:12:23.616Z,101071.81
2023-04-19T04:13:27.796Z,101072.03
2023-04-19T04:14:42.642Z,101076.06
2023-04-19T04:15:46.658Z,101074.38
2023-04-19T04:16:50.669Z,101077.34
2023-04-19T04:17:53.098Z,101071.22
2023-04-19T04:18:57.806Z,101074.81
2023-04-19T04:20:02.115Z,101078.63
2023-04-19T04:21:06.678Z,101074.16
2023-04-19T04:22:12.137Z,101085.38
2023-04-19T04:23:17.403Z,101085.38
2023-04-19T04:24:24.280Z,101074.63
2023-04-19T04:25:39.458Z,101085.38
2023-04-19T04:26:46.286Z,101092.16
2023-04-19T04:27:58.162Z,101084.97
2023-04-19T04:29:03.188Z,101088.56
2023-04-19T04:30:07.265Z,101087.94
2023-04-19T04:31:10.111Z,101082.69
2023-04-19T04:32:14.528Z,101079.28
2023-04-19T04:33:18.253Z,101090.28
2023-04-19T04:34:20.699Z,101082.03
2023-04-19T04:35:31.830Z,101084.16
2023-04-19T04:36:44.546Z,101084.38
2023-04-19T04:37:47.037Z,101082.69
2023-04-19T04:38:49.975Z,101082.91
2023-04-19T04:39:52.237Z,101078.28
2023-04-19T04:40:55.953Z,101077.41
2023-04-19T04:41:59.771Z,101074.91
2023-04-19T04:43:04.683Z,101077.63
2023-04-19T04:44:12.549Z,101079.56
2023-04-19T04:45:18.655Z,101079.75
2023-04-19T04:46:21.415Z,101082.50
2023-04-19T04:47:24.387Z,101077.22
2023-04-19T04:48:31.699Z,101084.84
2023-04-19T04:49:33.916Z,101076.63
2023-04-19T04:50:36.205Z,101084.22
2023-04-19T04:51:38.587Z,101075.97
2023-04-19T04:52:41.276Z,101078.13
2023-04-19T04:53:47.599Z,101081.94
2023-04-19T04:54:50.448Z,101080.22
2023-04-19T04:56:02.092Z,101079.19
2023-04-19T04:57:05.686Z,101080.22
2023-04-19T04:58:08.120Z,101072.00
2023-04-19T04:59:29.116Z,101080.22
2023-04-19T05:00:32.570Z,101072.22
2023-04-19T05:01:41.347Z,101069.47
2023-04-19T05:02:45.042Z,101070.31
2023-04-19T05:03:48.055Z,101067.56
2023-04-19T05:04:54.020Z,101077.72
2023-04-19T05:05:56.551Z,101079.59
2023-04-19T05:06:59.806Z,101078.75
2023-04-19T05:08:04.260Z,101082.56
2023-04-19T05:09:08.294Z,101086.19
2023-04-19T05:10:11.672Z,101083.63
2023-04-19T05:11:21.127Z,101079.00
2023-04-19T05:12:23.641Z,101076.47
2023-04-19T05:13:26.277Z,101078.13
2023-04-19T05:14:29.689Z,101073.72
2023-04-19T05:15:32.102Z,101078.13
2023-04-19T05:16:34.588Z,101069.88
2023-04-19T05:17:36.958Z,101070.75
2023-04-19T05:18:39.352Z,101075.38
2023-04-19T05:19:41.629Z,101076.25
2023-04-19T05:20:46.971Z,101078.13
2023-04-19T05:21:55.139Z,101080.03
2023-04-19T05:22:59.829Z,101073.50
2023-04-19T05:24:02.060Z,101082.56
2023-04-19T05:25:04.933Z,101077.94
2023-04-19T05:26:07.540Z,101074.31
2023-04-19T05:27:11.485Z,101083.44
2023-04-19T05:28:15.045Z,101079.59
2023-04-19T05:29:29.364Z,101077.94
2023-04-19T05:30:32.034Z,101085.09
2023-04-19T05:31:35.819Z,101082.34
2023-04-19T05:32:46.551Z,101087.22
2023-04-19T05:33:50.243Z,101084.47
2023-04-19T05:34:52.565Z,101080.69
2023-04-19T05:35:56.488Z,101083.44
2023-04-19T05:36:58.920Z,101084.47
2023-04-19T05:38:01.622Z,101077.53
2023-04-19T05:39:04.307Z,101081.31
2023-04-19T05:40:10.493Z,101081.31
2023-04-19T05:41:12.754Z,101080.50
2023-04-19T05:42:15.105Z,101082.16
2023-04-19T05:43:17.432Z,101081.31
2023-04-19T05:44:19.778Z,101080.50
2023-04-19T05:45:22.849Z,101085.13
2023-04-19T05:46:25.465Z,101089.78
2023-04-19T05:47:27.867Z,101076.06
2023-04-19T05:48:50.468Z,101074.59
2023-04-19T05:50:11.320Z,101082.59
2023-04-19T05:51:20.079Z,101087.25
2023-04-19T05:52:31.212Z,101086.41
2023-04-19T05:53:34.915Z,101069.69
2023-04-19T05:54:37.746Z,101074.59
2023-04-19T05:55:40.892Z,101073.53
2023-04-19T05:56:44.438Z,101082.81
2023-04-19T05:57:46.945Z,101093.59
2023-04-19T05:58:49.628Z,101090.00
2023-04-19T05:59:51.947Z,101088.09
2023-04-19T06:01:00.201Z,101076.06
2023-04-19T06:02:03.279Z,101073.91
2023-04-19T06:03:06.324Z,101077.53
2023-04-19T06:04:09.145Z,101072.84
2023-04-19T06:05:12.006Z,101069.06
2023-04-19T06:06:16.235Z,101075.19
2023-04-19T06:07:30.951Z,101079.59
2023-04-19T06:08:35.102Z,101073.28
2023-04-19T06:09:37.415Z,101074.97
2023-04-19T06:10:51.732Z,101070.31
2023-04-19T06:12:01.306Z,101077.50
2023-04-19T06:13:04.368Z,101082.97
2023-04-19T06:14:07.341Z,101073.69
2023-04-19T06:15:12.178Z,101082.53
2023-04-19T06:16:16.286Z,101084.44
2023-04-19T06:17:23.636Z,101077.03
2023-04-19T06:18:26.094Z,101077.03
2023-04-19T06:19:28.377Z,101082.34
2023-04-19T06:20:30.626Z,101072.41
2023-04-19T06:21:33.125Z,101076.63
2023-04-19T06:22:36.673Z,101076.63
2023-04-19T06:23:39.031Z,101078.28
2023-04-19T06:24:42.018Z,101072.59
2023-04-19T06:25:44.355Z,101071.50
2023-04-19T06:26:47.840Z,101065.19
2023-04-19T06:27:50.289Z,101068.56
2023-04-19T06:28:52.662Z,101060.09
2023-04-19T06:29:55.530Z,101066.19
2023-04-19T06:30:57.811Z,101066.00
2023-04-19T06:32:00.238Z,101056.69
2023-04-19T06:33:02.880Z,101061.13
2023-04-19T06:34:05.260Z,101065.56
2023-04-19T06:35:08.109Z,101072.75
2023-04-19T06:36:12.154Z,101067.66
2023-04-19T06:37:14.798Z,101067.22
2023-04-19T06:38:17.105Z,101073.31
2023-04-19T06:39:19.435Z,101077.56
2023-04-19T06:40:21.884Z,101077.97
2023-04-19T06:41:24.118Z,101075.63
2023-04-19T06:42:27.598Z,101072.41
2023-04-19T06:43:30.169Z,101080.25
2023-04-19T06:44:32.988Z,101077.91
2023-04-19T06:45:35.402Z,101081.66
2023-04-19T06:46:37.636Z,101071.66
2023-04-19T06:47:39.936Z,101070.56
2023-04-19T06:48:42.216Z,101067.53
2023-04-19T06:49:44.493Z,101067.88
2023-04-19T06:50:47.051Z,101069.06
2023-04-19T06:51:49.723Z,101069.19
2023-04-19T06:52:51.990Z,101073.47
2023-04-19T06:53:54.300Z,101064.25
2023-04-19T06:54:56.742Z,101070.44
2023-04-19T06:56:01.562Z,101071.16
2023-04-19T06:57:04.036Z,101070.16
2023-04-19T06:58:10.671Z,101069.16
2023-04-19T06:59:15.212Z,101067.13
2023-04-19T07:00:17.926Z,101066.69
2023-04-19T07:01:21.314Z,101063.72
2023-04-19T07:02:23.732Z,101061.41
2023-04-19T07:03:26.467Z,101066.50
2023-04-19T07:04:29.047Z,101062.44
2023-04-19T07:05:32.294Z,101050.69
2023-04-19T07:06:36.348Z,101043.63
2023-04-19T07:07:38.606Z,101042.91
2023-04-19T07:08:49.801Z,101037.19
2023-04-19T07:09:52.764Z,101038.09
2023-04-19T07:10:56.812Z,101038.44
2023-04-19T07:12:01.834Z,101040.44
2023-04-19T07:13:04.171Z,101038.81
2023-04-19T07:14:06.848Z,101038.88
2023-04-19T07:15:09.727Z,101038.28
2023-04-19T07:16:12.150Z,101038.56
2023-04-19T07:17:15.702Z,101035.28
2023-04-19T07:18:18.001Z,101038.31
2023-04-19T07:19:21.175Z,101029.06
2023-04-19T07:20:23.823Z,101035.63
2023-04-19T07:21:28.923Z,101033.31
2023-04-19T07:22:31.407Z,101028.78
2023-04-19T07:23:33.779Z,101027.00
2023-04-19T07:24:36.103Z,101025.78
2023-04-19T07:25:38.349Z,101024.81
2023-04-19T07:26:40.738Z,101031.09
2023-04-19T07:27:42.967Z,101025.41
2023-04-19T07:28:45.417Z,101031.09
2023-04-19T07:29:47.755Z,101024.56
2023-04-19T07:30:50.008Z,101017.19
2023-04-19T07:31:55.522Z,101019.22
2023-04-19T07:32:58.004Z,101019.03
2023-04-19T07:34:00.365Z,101020.50
2023-04-19T07:35:02.685Z,101020.00
2023-04-19T07:36:06.729Z,101017.59
2023-04-19T07:37:09.302Z,101024.06
2023-04-19T07:38:11.691Z,101019.69
2023-04-19T07:39:14.035Z,101013.09
2023-04-19T07:40:16.348Z,101009.25
2023-04-19T07:41:18.650Z,101007.91
2023-04-19T07:42:21.402Z,101008.53
2023-04-19T07:43:23.722Z,101009.69
2023-04-19T07:44:26.033Z,101008.34
2023-04-19T07:45:30.148Z,101007.00
2023-04-19T07:46:32.464Z,101011.22
2023-04-19T07:47:34.833Z,101006.81
2023-04-19T07:48:38.293Z,101005.47
2023-04-19T07:49:40.625Z,101008.28
2023-04-19T07:50:42.977Z,101005.50
2023-04-19T07:51:45.242Z,100999.69
2023-04-19T07:52:47.934Z,101010.56
2023-04-19T07:53:50.668Z,101003.94
2023-04-19T07:54:53.331Z,101002.28
2023-04-19T07:55:55.667Z,101000.06
2023-04-19T07:57:00.670Z,100998.41
2023-04-19T07:58:03.092Z,101001.50
2023-04-19T07:59:08.887Z,101006.22
2023-04-19T08:00:13.315Z,101000.09
2023-04-19T08:01:18.903Z,101006.53
2023-04-19T08:02:21.338Z,100997.09
2023-04-19T08:03:24.881Z,101005.69
2023-04-19T08:04:27.571Z,101000.41
2023-04-19T08:05:31.486Z,101004.06
2023-04-19T08:06:33.831Z,101003.50
2023-04-19T08:07:36.794Z,100993.75
2023-04-19T08:08:39.173Z,100991.25
2023-04-19T08:09:41.666Z,100990.69
2023-04-19T08:10:44.480Z,100991.53
2023-04-19T08:11:46.959Z,100989.31
2023-04-19T08:13:04.563Z,100988.19
2023-04-19T08:14:18.561Z,100987.09
2023-04-19T08:16:15.206Z,100984.56
2023-04-19T08:17:56.898Z,100986.22
2023-04-19T08:18:59.282Z,100985.97
2023-04-19T08:20:01.622Z,100992.34
2023-04-19T08:21:05.311Z,100987.88
2023-04-19T08:22:07.619Z,100982.88
2023-04-19T08:23:22.219Z,100990.69
2023-04-19T08:24:27.100Z,100993.16
2023-04-19T08:25:29.339Z,100985.09
2023-04-19T08:26:31.631Z,100992.06
2023-04-19T08:27:33.964Z,100986.19
2023-04-19T08:28:36.283Z,100986.75
2023-04-19T08:29:41.261Z,100983.69
2023-04-19T08:30:43.558Z,100985.94
2023-04-19T08:31:46.713Z,100981.50
2023-04-19T08:32:49.089Z,100967.84
2023-04-19T08:33:51.403Z,100977.31
2023-04-19T08:34:53.717Z,100976.44
2023-04-19T08:35:56.100Z,100970.34
2023-04-19T08:37:03.982Z,100975.63
2023-04-19T08:38:07.975Z,100974.78
2023-04-19T08:39:18.026Z,100977.28
2023-04-19T08:40:27.583Z,100968.13
2023-04-19T08:41:31.078Z,100971.16
2023-04-19T08:42:36.785Z,100968.69
2023-04-19T08:43:43.673Z,100969.50
2023-04-19T08:45:53.912Z,100971.75
2023-04-19T08:46:58.851Z,100969.78
2023-04-19T08:48:02.785Z,100964.22
2023-04-19T08:49:06.250Z,100967.00
2023-04-19T08:50:23.939Z,100966.47
2023-04-19T08:51:27.601Z,100967.00
2023-04-19T08:52:30.740Z,100971.47
2023-04-19T08:53:37.910Z,100962.03
2023-04-19T08:54:41.842Z,100971.47
2023-04-19T08:55:59.194Z,100959.53
2023-04-19T08:57:06.445Z,100954.50
2023-04-19T08:58:18.992Z,100957.84
2023-04-19T08:59:31.015Z,100956.19
2023-04-19T09:00:34.211Z,100947.25
2023-04-19T09:01:37.203Z,100954.22
2023-04-19T09:02:50.823Z,100950.34
2023-04-19T09:04:06.715Z,100953.69
2023-04-19T09:05:14.989Z,100957.59
2023-04-19T09:06:17.727Z,100951.72
2023-04-19T09:07:27.135Z,100957.88
2023-04-19T09:08:31.258Z,100952.00
2023-04-19T09:09:39.150Z,100943.94
2023-04-19T09:11:01.875Z,100947.28
2023-04-19T09:12:15.213Z,100945.06
2023-04-19T09:13:18.381Z,100941.69
2023-04-19T09:14:22.402Z,100948.13
2023-04-19T09:15:37.516Z,100936.72
2023-04-19T09:16:42.478Z,100942.00
2023-04-19T09:17:45.227Z,100942.81
2023-04-19T09:19:05.387Z,100932.53
2023-04-19T09:20:14.291Z,100937.00
2023-04-19T09:21:28.423Z,100924.19
2023-04-19T09:22:31.873Z,100927.78
2023-04-19T09:23:34.189Z,100929.47
2023-04-19T09:27:12.550Z,100918.63
2023-04-19T09:28:16.474Z,100917.75
2023-04-19T09:29:20.051Z,100917.22
2023-04-19T09:30:32.458Z,100923.63
2023-04-19T09:31:50.552Z,100923.63
2023-04-19T09:32:54.108Z,100914.16
2023-04-19T09:33:59.524Z,100913.34
2023-04-19T09:35:02.887Z,100922.50
2023-04-19T09:36:06.696Z,100912.47
2023-04-19T09:37:21.279Z,100916.94
2023-04-19T09:38:49.811Z,100915.25
2023-04-19T09:39:53.668Z,100911.66
2023-04-19T09:41:09.177Z,100912.47
2023-04-19T09:42:11.601Z,100908.03
2023-04-19T09:43:53.267Z,100911.94
2023-04-19T09:46:06.013Z,100901.34
2023-04-19T09:47:33.082Z,100913.88
2023-04-19T09:48:37.459Z,100900.53
2023-04-19T09:49:48.363Z,100897.75
2023-04-19T09:51:00.878Z,100892.75
2023-04-19T09:52:06.085Z,100896.06
2023-04-19T09:53:09.018Z,100901.63
2023-04-19T09:54:12.778Z,100907.19
2023-04-19T09:55:27.113Z,100899.41
2023-04-19T09:56:30.941Z,100903.00
2023-04-19T09:57:34.591Z,100900.50
2023-04-19T09:58:49.993Z,100904.16
2023-04-19T09:59:55.028Z,100899.69
2023-04-19T10:01:10.810Z,100903.00
2023-04-19T10:02:18.013Z,100897.72
2023-04-19T10:03:22.311Z,100887.16
2023-04-19T10:04:38.477Z,100891.03
2023-04-19T10:05:50.174Z,100892.72
2023-04-19T10:07:24.548Z,100889.94
2023-04-19T10:08:17.433Z,100895.50
2023-04-19T10:09:21.493Z,100882.13
2023-04-19T10:10:33.281Z,100887.16
2023-04-19T10:11:54.446Z,100888.25
2023-04-19T10:14:12.422Z,100893.78
2023-04-19T10:15:15.180Z,100886.00
2023-04-19T10:16:20.269Z,100884.03
2023-04-19T10:17:23.821Z,100889.28
2023-04-19T10:18:27.095Z,100874.56
2023-04-19T10:19:30.761Z,100880.13
2023-04-19T10:20:39.810Z,100876.75
2023-04-19T10:21:43.422Z,100872.06
2023-04-19T10:22:45.833Z,100871.50
2023-04-19T10:23:49.760Z,100861.75
2023-04-19T10:25:12.338Z,100869.00
2023-04-19T10:26:14.602Z,100872.06
2023-04-19T10:27:16.996Z,100873.44
2023-04-19T10:28:19.280Z,100877.31
2023-04-19T10:29:56.777Z,100870.94
2023-04-19T10:31:03.866Z,100863.41
2023-04-19T10:32:06.851Z,100868.41
2023-04-19T10:33:09.276Z,100861.47
2023-04-19T10:34:12.913Z,100859.50
2023-04-19T10:35:21.567Z,100848.09
2023-04-19T10:36:27.918Z,100849.19
2023-04-19T10:37:31.993Z,100864.78
2023-04-19T10:38:43.473Z,100862.00
2023-04-19T10:39:45.969Z,100846.41
2023-04-19T10:41:01.963Z,100855.06
2023-04-19T10:42:04.205Z,100850.59
2023-04-19T10:43:16.657Z,100846.72
2023-04-19T10:44:18.900Z,100853.94
2023-04-19T10:45:35.197Z,100838.38
2023-04-19T10:46:42.426Z,100843.63
2023-04-19T10:47:45.160Z,100848.06
2023-04-19T10:48:55.485Z,100846.69
2023-04-19T10:49:57.830Z,100839.19
2023-04-19T10:51:17.167Z,100841.66
2023-04-19T10:52:31.690Z,100845.22
2023-04-19T10:54:03.956Z,100844.38
2023-04-19T10:55:06.827Z,100850.50
2023-04-19T10:56:09.123Z,100848.53
2023-04-19T10:57:12.677Z,100845.16
2023-04-19T10:58:16.422Z,100854.00
2023-04-19T10:59:22.726Z,100843.69
2023-04-19T11:00:27.087Z,100847.25
2023-04-19T11:01:38.391Z,100843.03
2023-04-19T11:02:40.858Z,100842.47
2023-04-19T11:03:46.369Z,100847.69
2023-04-19T11:04:48.817Z,100842.38
2023-04-19T11:06:21.511Z,100835.69
2023-04-19T11:07:25.289Z,100832.88
2023-04-19T11:08:27.575Z,100830.63
2023-04-19T11:09:38.415Z,100828.13
2023-04-19T11:10:42.158Z,100822.84
2023-04-19T11:11:44.784Z,100819.50
2023-04-19T11:12:47.048Z,100827.53
2023-04-19T11:13:51.912Z,100819.44
2023-04-19T11:14:57.881Z,100822.50
2023-04-19T11:16:00.346Z,100822.78
2023-04-19T11:17:13.958Z,100819.44
2023-04-19T11:18:19.815Z,100823.88
2023-04-19T11:19:22.384Z,100819.69
2023-04-19T11:20:24.962Z,100827.44
2023-04-19T11:21:30.249Z,100812.19
2023-04-19T11:22:38.775Z,100816.31
2023-04-19T11:23:41.517Z,100814.63
2023-04-19T11:24:48.329Z,100817.09
2023-04-19T11:25:53.148Z,100801.00
2023-04-19T11:26:57.129Z,100805.69
2023-04-19T11:28:00.646Z,100807.91
2023-04-19T11:29:03.371Z,100804.00
2023-04-19T11:30:17.354Z,100798.16
2023-04-19T11:31:20.380Z,100795.06
2023-04-19T11:32:23.199Z,100805.84
2023-04-19T11:33:26.087Z,100802.50
2023-04-19T11:34:28.480Z,100800.00
2023-04-19T11:35:31.622Z,100802.47
2023-04-19T11:36:37.151Z,100794.06
2023-04-19T11:37:40.772Z,100789.91
2023-04-19T11:38:47.792Z,100787.91
2023-04-19T11:39:51.991Z,100801.47
2023-04-19T11:41:04.685Z,100805.34
2023-04-19T11:42:19.060Z,100795.03
2023-04-19T11:43:21.651Z,100793.06
2023-04-19T11:44:23.994Z,100798.28
2023-04-19T11:45:32.520Z,100814.59
2023-04-19T11:46:37.129Z,100799.59
2023-04-19T11:47:49.643Z,100807.31
2023-04-19T11:48:53.650Z,100811.69
2023-04-19T11:49:57.959Z,100803.09
2023-04-19T11:51:01.058Z,100804.69
2023-04-19T11:52:06.985Z,100804.41
2023-04-19T11:53:15.953Z,100806.56
2023-04-19T11:54:18.601Z,100800.72
2023-04-19T11:55:21.544Z,100801.50
2023-04-19T11:56:25.152Z,100805.84
2023-04-19T11:57:31.207Z,100798.03
2023-04-19T11:58:37.966Z,100804.66
2023-04-19T12:00:00.190Z,100811.53
2023-04-19T12:01:09.716Z,100794.06
2023-04-19T12:02:13.036Z,100799.00
2023-04-19T12:03:16.039Z,100790.41
2023-04-19T12:04:20.260Z,100801.66
2023-04-19T12:05:24.732Z,100807.34
2023-04-19T12:06:29.951Z,100802.34
2023-04-19T12:07:32.157Z,100796.47
2023-04-19T12:08:55.876Z,100805.03
2023-04-19T12:10:10.395Z,100808.59
2023-04-19T12:11:13.931Z,100806.06
2023-04-19T12:12:32.187Z,100800.75
2023-04-19T12:13:37.766Z,100799.06
2023-04-19T12:14:40.095Z,100805.13
2023-04-19T12:15:44.141Z,100799.00
2023-04-19T12:16:47.048Z,100806.47
2023-04-19T12:18:02.551Z,100794.81
2023-04-19T12:19:18.338Z,100795.94
2023-04-19T12:20:35.394Z,100797.03
2023-04-19T12:21:37.822Z,100791.75
2023-04-19T12:22:40.051Z,100792.84
2023-04-19T12:23:42.329Z,100791.97
2023-04-19T12:24:44.800Z,100789.22
2023-04-19T12:25:48.863Z,100788.38
2023-04-19T12:26:57.821Z,100782.28
2023-04-19T12:28:04.194Z,100792.75
2023-04-19T12:29:06.404Z,100785.28
2023-04-19T12:30:10.403Z,100788.06